createdAt,value
2018-10-19T00:00:53.352Z,11.80
2018-10-19T00:03:21.972Z,11.80
2018-10-19T00:05:50.584Z,11.80
2018-10-19T00:08:19.182Z,11.80
2018-10-19T00:10:47.783Z,11.90
2018-10-19T00:13:16.418Z,11.80
2018-10-19T00:15:45.003Z,11.90
2018-10-19T00:18:13.591Z,11.90
2018-10-19T00:20:42.176Z,11.90
2018-10-19T00:23:10.789Z,12.00
2018-10-19T00:25:39.372Z,11.90
2018-10-19T00:28:07.964Z,12.00
2018-10-19T00:30:36.581Z,12.00
2018-10-19T00:33:05.195Z,12.00
2018-10-19T00:35:33.763Z,12.00
2018-10-19T00:38:02.348Z,12.00
2018-10-19T00:40:30.974Z,12.00
2018-10-19T00:42:59.555Z,12.10
2018-10-19T00:45:33.632Z,12.10
2018-10-19T00:48:08.890Z,12.10
2018-10-19T00:50:37.479Z,12.10
2018-10-19T00:53:07.188Z,12.20
2018-10-19T00:55:35.971Z,12.20
2018-10-19T00:58:04.626Z,12.10
2018-10-19T01:00:33.315Z,12.20
2018-10-19T01:03:01.919Z,12.10
2018-10-19T01:05:30.504Z,12.10
2018-10-19T01:07:59.111Z,12.00
2018-10-19T01:10:27.708Z,12.10
2018-10-19T01:12:58.402Z,12.00
2018-10-19T01:15:28.250Z,12.00
2018-10-19T01:17:57.236Z,12.00
2018-10-19T01:20:25.840Z,12.00
2018-10-19T01:22:54.696Z,12.00
2018-10-19T01:25:23.318Z,12.00
2018-10-19T01:27:52.135Z,12.00
2018-10-19T01:30:20.791Z,11.90
2018-10-19T01:32:49.443Z,11.90
2018-10-19T01:35:18.040Z,11.90
2018-10-19T01:37:46.647Z,11.90
2018-10-19T01:40:15.231Z,11.90
2018-10-19T01:42:43.830Z,12.00
2018-10-19T01:45:13.160Z,12.00
2018-10-19T01:47:42.323Z,11.90
2018-10-19T01:50:11.551Z,11.90
2018-10-19T01:52:40.983Z,12.00
2018-10-19T01:55:09.600Z,12.00
2018-10-19T01:57:38.240Z,11.90
2018-10-19T02:00:07.271Z,11.90
2018-10-19T02:02:35.952Z,12.00
2018-10-19T02:05:04.613Z,11.90
2018-10-19T02:07:33.344Z,11.80
2018-10-19T02:10:01.899Z,11.90
2018-10-19T02:12:30.496Z,11.90
2018-10-19T02:14:59.125Z,11.90
2018-10-19T02:17:27.679Z,11.90
2018-10-19T02:19:56.263Z,11.90
2018-10-19T02:22:24.843Z,11.80
2018-10-19T02:24:53.448Z,11.80
2018-10-19T02:27:22.031Z,11.80
2018-10-19T02:29:50.643Z,11.80
2018-10-19T02:32:19.237Z,11.80
2018-10-19T02:34:47.812Z,11.90
2018-10-19T02:37:16.412Z,11.90
2018-10-19T02:39:44.996Z,11.80
2018-10-19T02:42:13.575Z,11.70
2018-10-19T02:44:42.160Z,11.60
2018-10-19T02:47:11.641Z,11.60
2018-10-19T02:49:40.194Z,11.50
2018-10-19T02:52:08.799Z,11.60
2018-10-19T02:54:37.395Z,11.50
2018-10-19T02:57:06.453Z,11.50
2018-10-19T02:59:35.031Z,11.50
2018-10-19T03:02:03.607Z,11.50
2018-10-19T03:04:32.212Z,11.50
2018-10-19T03:07:00.799Z,11.50
2018-10-19T03:09:29.400Z,11.50
2018-10-19T03:11:57.988Z,11.50
2018-10-19T03:14:26.597Z,11.50
2018-10-19T03:16:55.246Z,11.40
2018-10-19T03:19:23.776Z,11.50
2018-10-19T03:21:52.373Z,11.50
2018-10-19T03:24:20.960Z,11.50
2018-10-19T03:26:49.544Z,11.60
2018-10-19T03:29:18.297Z,11.60
2018-10-19T03:31:46.840Z,11.60
2018-10-19T03:34:15.364Z,11.60
2018-10-19T03:36:43.957Z,11.60
2018-10-19T03:39:12.574Z,11.60
2018-10-19T03:41:41.978Z,11.50
2018-10-19T03:44:10.562Z,11.50
2018-10-19T03:46:39.155Z,11.50
2018-10-19T03:49:07.742Z,11.60
2018-10-19T03:51:36.328Z,11.50
2018-10-19T03:54:05.370Z,11.50
2018-10-19T03:56:33.962Z,11.40
2018-10-19T03:59:02.597Z,11.40
2018-10-19T04:01:31.152Z,11.40
2018-10-19T04:03:59.750Z,11.40
2018-10-19T04:06:28.336Z,11.40
2018-10-19T04:08:56.976Z,11.40
2018-10-19T04:11:25.518Z,11.50
2018-10-19T04:13:54.115Z,11.50
2018-10-19T04:16:22.885Z,11.40
2018-10-19T04:18:51.489Z,11.40
2018-10-19T04:21:20.191Z,11.40
2018-10-19T04:23:48.691Z,11.50
2018-10-19T04:26:17.292Z,11.40
2018-10-19T04:28:45.908Z,11.40
2018-10-19T04:31:14.495Z,11.40
2018-10-19T04:33:43.098Z,11.40
2018-10-19T04:36:11.728Z,11.50
2018-10-19T04:38:40.336Z,11.40
2018-10-19T04:41:08.966Z,11.40
2018-10-19T04:43:37.552Z,11.40
2018-10-19T04:46:06.199Z,11.40
2018-10-19T04:48:34.820Z,11.40
2018-10-19T04:51:03.448Z,11.50
2018-10-19T04:53:32.059Z,11.50
2018-10-19T04:56:00.636Z,11.50
2018-10-19T04:58:29.268Z,11.50
2018-10-19T05:00:57.863Z,11.50
2018-10-19T05:03:26.487Z,11.50
2018-10-19T05:05:55.149Z,11.60
2018-10-19T05:08:23.805Z,11.60
2018-10-19T05:10:52.360Z,11.50
2018-10-19T05:13:20.911Z,11.60
2018-10-19T05:15:49.503Z,11.60
2018-10-19T05:18:18.107Z,11.60
2018-10-19T05:20:46.702Z,11.60
2018-10-19T05:23:15.357Z,11.70
2018-10-19T05:25:43.887Z,11.70
2018-10-19T05:28:12.472Z,11.60
2018-10-19T05:30:41.075Z,11.70
2018-10-19T05:33:09.687Z,11.70
2018-10-19T05:35:38.283Z,11.80
2018-10-19T05:38:07.107Z,11.80
2018-10-19T05:40:35.644Z,11.70
2018-10-19T05:43:04.440Z,11.70
2018-10-19T05:45:33.039Z,11.60
2018-10-19T05:48:01.624Z,11.70
2018-10-19T05:50:30.225Z,11.70
2018-10-19T05:52:58.987Z,11.60
2018-10-19T05:55:27.532Z,11.60
2018-10-19T05:57:56.123Z,11.60
2018-10-19T06:00:24.727Z,11.60
2018-10-19T06:02:53.320Z,11.60
2018-10-19T06:05:21.903Z,11.50
2018-10-19T06:07:50.496Z,11.50
2018-10-19T06:10:19.093Z,11.50
2018-10-19T06:12:47.687Z,11.50
2018-10-19T06:15:16.279Z,11.60
2018-10-19T06:17:44.881Z,11.60
2018-10-19T06:20:13.543Z,11.60
2018-10-19T06:22:42.064Z,11.60
2018-10-19T06:25:10.667Z,11.60
2018-10-19T06:27:39.263Z,11.60
2018-10-19T06:30:08.251Z,11.60
2018-10-19T06:32:37.055Z,11.60
2018-10-19T06:35:05.833Z,11.60
2018-10-19T06:37:34.367Z,11.60
2018-10-19T06:40:02.947Z,11.70
2018-10-19T06:42:31.562Z,11.60
2018-10-19T06:45:00.868Z,11.70
2018-10-19T06:47:29.429Z,11.70
2018-10-19T06:49:58.057Z,11.80
2018-10-19T06:52:26.648Z,11.80
2018-10-19T06:54:57.305Z,11.80
2018-10-19T06:57:28.490Z,11.90
2018-10-19T06:59:57.036Z,11.80
2018-10-19T07:02:25.759Z,11.80
2018-10-19T07:04:54.405Z,11.80
2018-10-19T07:07:23.088Z,11.90
2018-10-19T07:09:51.983Z,11.80
2018-10-19T07:12:21.108Z,11.90
2018-10-19T07:14:49.826Z,11.90
2018-10-19T07:17:18.409Z,12.00
2018-10-19T07:19:48.172Z,11.90
2018-10-19T07:22:16.767Z,11.90
2018-10-19T07:24:45.368Z,11.90
2018-10-19T07:27:16.742Z,11.90
2018-10-19T07:29:45.340Z,11.90
2018-10-19T07:32:14.090Z,11.90
2018-10-19T07:34:42.524Z,12.00
2018-10-19T07:37:11.120Z,11.90
2018-10-19T07:39:39.728Z,11.80
2018-10-19T07:42:08.340Z,11.90
2018-10-19T07:44:36.988Z,11.90
2018-10-19T07:47:05.838Z,11.90
2018-10-19T07:49:34.415Z,11.90
2018-10-19T07:52:03.086Z,11.90
2018-10-19T07:54:31.722Z,11.90
2018-10-19T07:57:00.231Z,11.90
2018-10-19T07:59:28.839Z,12.00
2018-10-19T08:01:57.452Z,12.10
2018-10-19T08:04:26.029Z,12.20
2018-10-19T08:06:54.619Z,12.20
2018-10-19T08:09:23.219Z,12.20
2018-10-19T08:11:51.808Z,12.10
2018-10-19T08:14:20.420Z,12.10
2018-10-19T08:16:49.009Z,12.20
2018-10-19T08:19:17.591Z,12.30
2018-10-19T08:21:46.192Z,12.40
2018-10-19T08:24:14.784Z,12.40
2018-10-19T08:26:43.363Z,12.40
2018-10-19T08:29:11.992Z,12.60
2018-10-19T08:31:40.555Z,12.50
2018-10-19T08:34:09.156Z,12.50
2018-10-19T08:36:37.797Z,12.60
2018-10-19T08:39:07.293Z,12.70
2018-10-19T08:41:35.952Z,12.70
2018-10-19T08:44:04.508Z,12.70
2018-10-19T08:46:37.796Z,12.60
2018-10-19T08:49:07.894Z,12.50
2018-10-19T08:51:36.473Z,12.60
2018-10-19T08:54:05.159Z,12.60
2018-10-19T08:56:33.799Z,12.60
2018-10-19T08:59:02.486Z,12.60
2018-10-19T09:01:31.007Z,12.70
2018-10-19T09:03:59.643Z,12.70
2018-10-19T09:06:28.201Z,12.50
2018-10-19T09:08:56.832Z,12.50
2018-10-19T09:11:25.558Z,12.60
2018-10-19T09:13:54.112Z,12.70
2018-10-19T09:16:22.715Z,12.90
2018-10-19T09:18:51.319Z,12.90
2018-10-19T09:21:19.913Z,13.00
2018-10-19T09:23:48.503Z,13.00
2018-10-19T09:26:17.099Z,13.00
2018-10-19T09:28:45.711Z,13.10
2018-10-19T09:31:14.295Z,13.20
2018-10-19T09:33:42.887Z,13.20
2018-10-19T09:36:11.586Z,13.00
2018-10-19T09:38:40.068Z,13.00
2018-10-19T09:41:08.824Z,12.90
2018-10-19T09:43:37.275Z,12.80
2018-10-19T09:46:05.832Z,12.80
2018-10-19T09:48:34.422Z,13.10
2018-10-19T09:51:03.031Z,13.40
2018-10-19T09:53:31.619Z,13.60
2018-10-19T09:56:00.237Z,13.70
2018-10-19T09:58:28.808Z,13.70
2018-10-19T10:00:58.072Z,13.60
2018-10-19T10:03:27.070Z,13.60
2018-10-19T10:05:55.863Z,13.40
2018-10-19T10:08:24.816Z,13.70
2018-10-19T10:10:53.717Z,13.70
2018-10-19T10:13:22.288Z,13.80
2018-10-19T10:15:50.985Z,14.00
2018-10-19T10:18:19.536Z,14.10
2018-10-19T10:20:48.158Z,14.10
2018-10-19T10:23:16.748Z,14.00
2018-10-19T10:25:45.379Z,14.20
2018-10-19T10:28:14.025Z,14.10
2018-10-19T10:30:42.566Z,14.10
2018-10-19T10:33:11.275Z,14.10
2018-10-19T10:35:39.864Z,14.30
2018-10-19T10:38:08.463Z,14.50
2018-10-19T10:40:37.056Z,14.30
2018-10-19T10:43:05.656Z,14.50
2018-10-19T10:45:34.248Z,14.40
2018-10-19T10:48:02.863Z,14.50
2018-10-19T10:50:31.542Z,14.60
2018-10-19T10:53:00.144Z,14.60
2018-10-19T10:55:28.732Z,14.60
2018-10-19T10:57:57.368Z,14.50
2018-10-19T11:00:25.915Z,14.50
2018-10-19T11:02:54.517Z,14.60
2018-10-19T11:05:23.111Z,14.70
2018-10-19T11:07:51.687Z,14.90
2018-10-19T11:10:20.322Z,15.00
2018-10-19T11:12:49.111Z,15.30
2018-10-19T11:15:17.728Z,15.50
2018-10-19T11:17:46.375Z,15.60
2018-10-19T11:20:14.990Z,16.00
2018-10-19T11:22:43.597Z,16.20
2018-10-19T11:25:12.262Z,16.30
2018-10-19T11:27:40.823Z,16.30
2018-10-19T11:30:09.609Z,16.00
2018-10-19T11:32:38.240Z,16.70
2018-10-19T11:35:07.212Z,17.40
2018-10-19T11:37:36.815Z,19.40
2018-10-19T11:40:39.315Z,20.50
2018-10-19T11:43:08.008Z,21.10
2018-10-19T11:45:37.762Z,20.60
2018-10-19T11:48:06.371Z,21.10
2018-10-19T11:50:34.975Z,21.10
2018-10-19T11:53:03.619Z,21.10
2018-10-19T11:55:32.228Z,21.40
2018-10-19T11:58:00.863Z,22.60
2018-10-19T12:00:29.419Z,23.30
2018-10-19T12:02:58.011Z,24.50
2018-10-19T12:05:26.620Z,22.80
2018-10-19T12:07:55.211Z,22.10
2018-10-19T12:10:23.816Z,23.60
2018-10-19T12:12:52.425Z,24.30
2018-10-19T12:15:21.027Z,24.00
2018-10-19T12:17:49.623Z,24.00
2018-10-19T12:20:18.963Z,25.30
2018-10-19T12:22:47.555Z,25.70
2018-10-19T12:25:16.825Z,25.30
2018-10-19T12:27:45.428Z,26.10
2018-10-19T12:30:14.136Z,26.90
2018-10-19T12:32:42.746Z,27.20
2018-10-19T12:35:12.863Z,26.00
2018-10-19T12:37:41.460Z,26.50
2018-10-19T12:40:10.877Z,26.70
2018-10-19T12:42:39.679Z,27.10
2018-10-19T12:45:19.844Z,27.70
2018-10-19T12:47:48.459Z,27.20
2018-10-19T12:50:17.053Z,27.20
2018-10-19T12:52:45.658Z,25.60
2018-10-19T12:55:14.316Z,23.70
2018-10-19T12:57:42.889Z,22.80
2018-10-19T13:00:11.450Z,22.70
2018-10-19T13:02:40.051Z,24.30
2018-10-19T13:05:08.643Z,25.20
2018-10-19T13:07:37.239Z,26.00
2018-10-19T13:10:05.945Z,26.30
2018-10-19T13:12:34.544Z,25.90
2018-10-19T13:15:03.207Z,24.40
2018-10-19T13:17:31.772Z,22.40
2018-10-19T13:20:00.406Z,22.80
2018-10-19T13:22:28.987Z,23.80
2018-10-19T13:24:57.595Z,24.40
2018-10-19T13:27:26.209Z,25.20
2018-10-19T13:29:54.821Z,26.30
2018-10-19T13:32:23.427Z,26.70
2018-10-19T13:34:52.085Z,26.70
2018-10-19T13:37:20.715Z,26.00
2018-10-19T13:39:49.339Z,25.80
2018-10-19T13:42:17.948Z,26.80
2018-10-19T13:44:46.552Z,27.80
2018-10-19T13:47:15.187Z,27.50
2018-10-19T13:49:43.744Z,27.20
2018-10-19T13:52:12.404Z,26.70
2018-10-19T13:54:40.976Z,26.50
2018-10-19T13:57:09.652Z,27.10
2018-10-19T13:59:38.198Z,27.30
2018-10-19T14:02:37.738Z,26.90
2018-10-19T14:05:06.517Z,25.50
2018-10-19T14:07:35.106Z,24.80
2018-10-19T14:10:03.784Z,23.40
2018-10-19T14:12:32.407Z,22.50
2018-10-19T14:15:01.086Z,21.40
2018-10-19T14:17:29.707Z,20.40
2018-10-19T14:19:58.648Z,19.60
2018-10-19T14:22:27.231Z,19.40
2018-10-19T14:24:55.823Z,18.90
2018-10-19T14:27:24.415Z,18.60
2018-10-19T14:29:53.012Z,18.70
2018-10-19T14:32:21.640Z,18.70
2018-10-19T14:34:50.240Z,18.60
2018-10-19T14:37:18.831Z,18.50
2018-10-19T14:39:47.420Z,18.20
2018-10-19T14:42:16.023Z,18.00
2018-10-19T14:44:44.607Z,17.90
2018-10-19T14:47:13.390Z,17.80
2018-10-19T14:49:41.840Z,17.60
2018-10-19T14:52:10.427Z,17.40
2018-10-19T14:54:39.075Z,17.30
2018-10-19T14:57:07.682Z,17.20
2018-10-19T14:59:36.207Z,17.10
2018-10-19T15:02:04.904Z,17.00
2018-10-19T15:04:33.562Z,17.00
2018-10-19T15:07:02.191Z,17.10
2018-10-19T15:09:30.858Z,17.20
2018-10-19T15:11:59.434Z,17.50
2018-10-19T15:14:28.015Z,17.70
2018-10-19T15:16:56.619Z,17.70
2018-10-19T15:19:25.227Z,17.50
2018-10-19T15:21:53.842Z,17.50
2018-10-19T15:24:22.443Z,17.50
2018-10-19T15:26:51.040Z,17.60
2018-10-19T15:29:19.673Z,17.60
2018-10-19T15:31:48.316Z,17.80
2018-10-19T15:34:16.916Z,17.60
2018-10-19T15:36:45.555Z,17.70
2018-10-19T15:39:14.277Z,17.70
2018-10-19T15:41:42.755Z,17.50
2018-10-19T15:44:11.620Z,17.50
2018-10-19T15:46:40.327Z,17.30
2018-10-19T15:49:08.843Z,17.20
2018-10-19T15:51:37.463Z,17.10
2018-10-19T15:54:06.082Z,17.00
2018-10-19T15:56:34.650Z,16.90
2018-10-19T15:59:03.246Z,16.70
2018-10-19T16:01:31.848Z,16.60
2018-10-19T16:04:00.447Z,16.40
2018-10-19T16:06:29.063Z,16.30
2018-10-19T16:08:57.764Z,16.20
2018-10-19T16:11:26.315Z,16.10
2018-10-19T16:13:54.920Z,15.90
2018-10-19T16:16:23.525Z,15.90
2018-10-19T16:18:52.127Z,15.80
2018-10-19T16:21:20.738Z,15.80
2018-10-19T16:23:49.340Z,15.70
2018-10-19T16:26:17.940Z,15.70
2018-10-19T16:28:46.544Z,15.60
2018-10-19T16:31:15.148Z,15.60
2018-10-19T16:33:43.760Z,15.50
2018-10-19T16:36:12.395Z,15.40
2018-10-19T16:38:40.964Z,15.40
2018-10-19T16:41:09.564Z,15.40
2018-10-19T16:43:38.163Z,15.40
2018-10-19T16:46:06.814Z,15.30
2018-10-19T16:48:35.447Z,15.30
2018-10-19T16:51:04.082Z,15.20
2018-10-19T16:53:32.660Z,15.10
2018-10-19T16:56:01.243Z,15.10
2018-10-19T16:58:29.843Z,15.00
2018-10-19T17:00:58.446Z,14.90
2018-10-19T17:03:27.128Z,14.90
2018-10-19T17:05:55.713Z,14.80
2018-10-19T17:08:24.309Z,14.70
2018-10-19T17:10:52.930Z,14.70
2018-10-19T17:13:21.532Z,14.60
2018-10-19T17:15:50.136Z,14.60
2018-10-19T17:18:18.772Z,14.40
2018-10-19T17:20:47.403Z,14.30
2018-10-19T17:23:15.985Z,14.20
2018-10-19T17:25:44.583Z,14.10
2018-10-19T17:28:13.175Z,14.00
2018-10-19T17:30:41.856Z,14.00
2018-10-19T17:33:10.425Z,14.00
2018-10-19T17:35:38.951Z,13.90
2018-10-19T17:38:07.528Z,13.90
2018-10-19T17:40:36.115Z,13.80
2018-10-19T17:43:05.315Z,13.60
2018-10-19T17:45:33.879Z,13.60
2018-10-19T17:48:02.478Z,13.70
2018-10-19T17:50:31.064Z,13.60
2018-10-19T17:52:59.682Z,13.60
2018-10-19T17:55:28.255Z,13.60
2018-10-19T17:57:56.843Z,13.60
2018-10-19T18:00:25.447Z,13.60
2018-10-19T18:02:54.087Z,13.60
2018-10-19T18:05:22.626Z,13.50
2018-10-19T18:07:51.203Z,13.40
2018-10-19T18:10:19.803Z,13.30
2018-10-19T18:12:48.445Z,13.20
2018-10-19T18:15:17.097Z,13.20
2018-10-19T18:17:45.642Z,13.10
2018-10-19T18:20:14.223Z,13.00
2018-10-19T18:22:42.902Z,13.00
2018-10-19T18:25:11.419Z,12.90
2018-10-19T18:27:40.031Z,12.80
2018-10-19T18:30:08.850Z,12.80
2018-10-19T18:32:38.208Z,12.80
2018-10-19T18:35:08.413Z,12.70
2018-10-19T18:37:37.044Z,12.70
2018-10-19T18:40:07.032Z,12.60
2018-10-19T18:42:35.710Z,12.50
2018-10-19T18:45:04.367Z,12.40
2018-10-19T18:47:32.947Z,12.30
2018-10-19T18:50:01.653Z,12.30
2018-10-19T18:52:30.159Z,12.30
2018-10-19T18:54:58.776Z,12.30
2018-10-19T18:57:27.339Z,12.30
2018-10-19T18:59:55.982Z,12.30
2018-10-19T19:02:24.840Z,12.20
2018-10-19T19:04:53.510Z,12.20
2018-10-19T19:07:22.047Z,12.30
2018-10-19T19:09:55.993Z,12.30
2018-10-19T19:12:24.578Z,12.40
2018-10-19T19:14:53.201Z,12.50
2018-10-19T19:17:21.781Z,12.60
2018-10-19T19:19:55.788Z,12.60
2018-10-19T19:22:24.396Z,12.50
2018-10-19T19:24:58.431Z,12.70
2018-10-19T19:27:27.032Z,12.70
2018-10-19T19:29:55.655Z,12.70
2018-10-19T19:32:24.251Z,12.70
2018-10-19T19:34:52.865Z,12.70
2018-10-19T19:37:21.478Z,12.70
2018-10-19T19:39:50.093Z,12.60
2018-10-19T19:42:24.088Z,12.60
2018-10-19T19:44:52.744Z,12.50
2018-10-19T19:47:26.568Z,12.40
2018-10-19T19:49:59.457Z,12.40
2018-10-19T19:52:28.035Z,12.30
2018-10-19T19:54:56.670Z,12.20
2018-10-19T19:57:25.292Z,12.10
2018-10-19T19:59:54.152Z,12.10
2018-10-19T20:02:22.747Z,12.00
2018-10-19T20:04:51.347Z,11.90
2018-10-19T20:07:19.940Z,11.90
2018-10-19T20:09:48.542Z,11.80
2018-10-19T20:12:17.204Z,11.80
2018-10-19T20:14:45.781Z,11.70
2018-10-19T20:17:14.447Z,11.70
2018-10-19T20:19:42.955Z,11.50
2018-10-19T20:22:11.547Z,11.50
2018-10-19T20:24:40.159Z,11.40
2018-10-19T20:27:08.763Z,11.40
2018-10-19T20:29:37.355Z,11.30
2018-10-19T20:32:05.985Z,11.20
2018-10-19T20:34:34.519Z,11.20
2018-10-19T20:37:03.113Z,11.20
2018-10-19T20:39:31.704Z,11.10
2018-10-19T20:42:00.301Z,11.10
2018-10-19T20:44:28.935Z,11.00
2018-10-19T20:46:57.574Z,10.90
2018-10-19T20:49:26.140Z,10.90
2018-10-19T20:51:54.744Z,10.80
2018-10-19T20:54:23.340Z,10.80
2018-10-19T20:56:51.930Z,10.70
2018-10-19T20:59:20.515Z,10.80
2018-10-19T21:01:49.119Z,10.70
2018-10-19T21:04:17.704Z,10.80
2018-10-19T21:06:46.311Z,10.70
2018-10-19T21:09:14.917Z,10.60
2018-10-19T21:11:43.509Z,10.70
2018-10-19T21:14:12.293Z,10.70
2018-10-19T21:16:40.700Z,10.80
2018-10-19T21:19:09.414Z,10.80
2018-10-19T21:21:37.909Z,10.70
2018-10-19T21:24:06.532Z,10.70
2018-10-19T21:26:35.139Z,10.70
2018-10-19T21:29:03.746Z,10.70
2018-10-19T21:31:32.358Z,10.60
2018-10-19T21:34:00.948Z,10.50
2018-10-19T21:36:29.551Z,10.60
2018-10-19T21:38:58.159Z,10.60
2018-10-19T21:41:26.771Z,10.60
2018-10-19T21:43:55.375Z,10.50
2018-10-19T21:46:23.983Z,10.50
2018-10-19T21:48:52.588Z,10.40
2018-10-19T21:51:21.183Z,10.40
2018-10-19T21:53:49.791Z,10.30
2018-10-19T21:56:18.392Z,10.10
2018-10-19T21:58:47.062Z,10.00
2018-10-19T22:01:15.616Z,9.90
2018-10-19T22:03:44.244Z,9.90
2018-10-19T22:06:12.851Z,9.90
2018-10-19T22:08:41.557Z,9.90
2018-10-19T22:11:10.165Z,9.80
2018-10-19T22:13:38.711Z,9.80
2018-10-19T22:16:07.855Z,9.70
2018-10-19T22:18:36.459Z,9.70
2018-10-19T22:21:05.059Z,9.60
2018-10-19T22:23:33.740Z,9.50
2018-10-19T22:26:02.247Z,9.40
2018-10-19T22:28:30.846Z,9.30
2018-10-19T22:30:59.469Z,9.30
2018-10-19T22:33:28.053Z,9.30
2018-10-19T22:35:56.649Z,9.20
2018-10-19T22:38:25.252Z,9.10
2018-10-19T22:40:53.868Z,9.10
2018-10-19T22:43:22.432Z,9.10
2018-10-19T22:45:51.047Z,9.00
2018-10-19T22:48:19.650Z,9.00
2018-10-19T22:50:48.340Z,9.00
2018-10-19T22:53:16.947Z,9.00
2018-10-19T22:55:45.669Z,9.00
2018-10-19T22:58:14.260Z,8.90
2018-10-19T23:00:42.866Z,8.70
2018-10-19T23:03:11.464Z,8.70
2018-10-19T23:05:40.071Z,8.70
2018-10-19T23:08:08.668Z,8.70
2018-10-19T23:10:37.276Z,8.80
2018-10-19T23:13:05.881Z,8.70
2018-10-19T23:15:34.471Z,8.70
2018-10-19T23:18:03.297Z,8.40
2018-10-19T23:20:31.918Z,8.40
2018-10-19T23:23:00.523Z,8.50
2018-10-19T23:25:29.096Z,8.50
2018-10-19T23:27:57.675Z,8.50
2018-10-19T23:30:26.349Z,8.40
2018-10-19T23:32:54.915Z,8.50
2018-10-19T23:35:23.492Z,8.50
2018-10-19T23:37:52.078Z,8.50
2018-10-19T23:40:20.667Z,8.40
2018-10-19T23:42:49.334Z,8.50
2018-10-19T23:45:17.882Z,8.40
2018-10-19T23:47:46.466Z,8.30
2018-10-19T23:50:15.057Z,8.30
2018-10-19T23:52:43.653Z,8.30
2018-10-19T23:55:12.295Z,8.30
2018-10-19T23:57:40.831Z,8.20
